createdAt,value
2023-02-02T00:01:34.437Z,16.83
2023-02-02T00:04:01.892Z,21.90
2023-02-02T00:06:30.329Z,22.47
2023-02-02T00:08:58.896Z,19.67
2023-02-02T00:11:27.292Z,21.67
2023-02-02T00:13:54.310Z,18.67
2023-02-02T00:16:27.168Z,25.57
2023-02-02T00:18:56.896Z,21.33
2023-02-02T00:21:24.070Z,24.30
2023-02-02T00:23:51.246Z,20.37
2023-02-02T00:26:18.622Z,12.70
2023-02-02T00:28:45.811Z,20.50
2023-02-02T00:31:12.903Z,26.63
2023-02-02T00:33:39.624Z,19.60
2023-02-02T00:36:07.123Z,20.67
2023-02-02T00:38:34.696Z,20.87
2023-02-02T00:41:01.690Z,16.67
2023-02-02T00:43:28.533Z,18.67
2023-02-02T00:45:55.941Z,21.13
2023-02-02T00:48:22.847Z,19.20
2023-02-02T00:50:49.825Z,19.97
2023-02-02T00:53:16.537Z,13.23
2023-02-02T00:55:44.054Z,18.67
2023-02-02T00:58:10.894Z,20.53
2023-02-02T01:00:37.979Z,20.57
2023-02-02T01:03:06.075Z,21.33
2023-02-02T01:05:34.586Z,20.53
2023-02-02T01:08:01.631Z,18.83
2023-02-02T01:10:28.966Z,22.90
2023-02-02T01:12:55.856Z,28.97
2023-02-02T01:15:23.135Z,25.27
2023-02-02T01:17:50.312Z,27.07
2023-02-02T01:20:19.969Z,18.80
2023-02-02T01:22:47.497Z,13.97
2023-02-02T01:25:14.679Z,18.50
2023-02-02T01:27:43.273Z,25.60
2023-02-02T01:30:11.235Z,15.80
2023-02-02T01:32:37.987Z,15.50
2023-02-02T01:35:05.460Z,23.77
2023-02-02T01:37:32.291Z,17.10
2023-02-02T01:39:59.753Z,25.97
2023-02-02T01:42:26.517Z,25.87
2023-02-02T01:45:13.461Z,15.87
2023-02-02T01:47:46.835Z,15.50
2023-02-02T01:50:16.459Z,18.30
2023-02-02T01:52:48.620Z,14.20
2023-02-02T01:55:19.047Z,22.43
2023-02-02T01:57:54.850Z,13.17
2023-02-02T02:00:27.226Z,17.97
2023-02-02T02:02:59.219Z,16.10
2023-02-02T02:05:31.990Z,17.67
2023-02-02T02:08:20.286Z,15.30
2023-02-02T02:10:48.177Z,17.50
2023-02-02T02:13:16.213Z,21.03
2023-02-02T02:16:17.906Z,13.77
2023-02-02T02:19:19.676Z,16.20
2023-02-02T02:22:48.408Z,15.03
2023-02-02T02:26:15.966Z,13.23
2023-02-02T02:29:06.693Z,20.23
2023-02-02T02:32:02.868Z,16.20
2023-02-02T02:34:53.914Z,26.77
2023-02-02T02:37:34.214Z,17.37
2023-02-02T02:40:27.471Z,16.97
2023-02-02T02:42:59.561Z,22.33
2023-02-02T02:45:28.941Z,19.70
2023-02-02T02:47:56.723Z,26.83
2023-02-02T02:50:25.126Z,18.10
2023-02-02T02:53:06.388Z,16.37
2023-02-02T02:59:18.380Z,23.83
2023-02-02T03:02:04.442Z,18.80
2023-02-02T03:04:51.338Z,13.47
2023-02-02T03:07:26.071Z,22.23
2023-02-02T03:09:56.607Z,20.33
2023-02-02T03:12:24.391Z,15.63
2023-02-02T03:14:51.174Z,20.50
2023-02-02T03:17:18.283Z,29.57
2023-02-02T03:19:45.330Z,23.27
2023-02-02T03:22:12.348Z,23.10
2023-02-02T03:24:39.066Z,16.03
2023-02-02T03:27:06.111Z,19.30
2023-02-02T03:29:33.114Z,21.07
2023-02-02T03:32:00.224Z,17.73
2023-02-02T03:34:26.908Z,16.83
2023-02-02T03:36:53.909Z,14.90
2023-02-02T03:39:20.599Z,15.97
2023-02-02T03:41:47.661Z,20.60
2023-02-02T03:44:14.484Z,17.23
2023-02-02T03:46:41.648Z,16.53
2023-02-02T03:49:08.498Z,24.43
2023-02-02T03:51:35.494Z,9.93
2023-02-02T03:54:02.217Z,16.63
2023-02-02T03:56:29.292Z,16.03
2023-02-02T03:58:56.009Z,21.40
2023-02-02T04:01:28.958Z,14.83
2023-02-02T04:03:56.961Z,13.20
2023-02-02T04:06:24.807Z,18.43
2023-02-02T04:08:52.236Z,12.00
2023-02-02T04:11:19.306Z,13.17
2023-02-02T04:13:46.118Z,15.77
2023-02-02T04:16:13.481Z,7.73
2023-02-02T04:18:40.466Z,13.93
2023-02-02T04:21:08.677Z,12.83
2023-02-02T04:23:35.815Z,11.00
2023-02-02T04:26:03.432Z,7.03
2023-02-02T04:28:30.194Z,8.17
2023-02-02T04:30:57.811Z,7.63
2023-02-02T04:33:26.422Z,6.40
2023-02-02T04:35:53.849Z,10.03
2023-02-02T04:38:20.572Z,9.70
2023-02-02T04:40:48.451Z,7.53
2023-02-02T04:43:15.524Z,6.23
2023-02-02T04:45:42.627Z,7.00
2023-02-02T04:48:09.972Z,4.97
2023-02-02T04:50:36.991Z,5.97
2023-02-02T04:53:04.559Z,4.00
2023-02-02T04:55:31.568Z,5.10
2023-02-02T04:57:58.293Z,7.60
2023-02-02T05:00:25.347Z,6.47
2023-02-02T05:02:52.051Z,4.67
2023-02-02T05:05:20.450Z,7.60
2023-02-02T05:07:47.246Z,7.03
2023-02-02T05:10:14.391Z,7.00
2023-02-02T05:12:41.110Z,5.27
2023-02-02T05:15:08.817Z,5.60
2023-02-02T05:17:35.557Z,4.60
2023-02-02T05:20:02.643Z,5.37
2023-02-02T05:22:29.491Z,3.87
2023-02-02T05:24:56.491Z,4.60
2023-02-02T05:27:23.247Z,7.10
2023-02-02T05:29:50.267Z,7.97
2023-02-02T05:32:17.000Z,8.07
2023-02-02T05:34:43.979Z,11.43
2023-02-02T05:37:10.766Z,12.70
2023-02-02T05:39:37.877Z,10.97
2023-02-02T05:42:04.730Z,13.80
2023-02-02T05:44:31.807Z,14.00
2023-02-02T05:46:58.541Z,17.37
2023-02-02T05:49:25.760Z,16.87
2023-02-02T05:51:57.050Z,15.07
2023-02-02T05:54:24.732Z,13.43
2023-02-02T05:56:54.546Z,15.90
2023-02-02T05:59:22.119Z,15.23
2023-02-02T06:01:49.381Z,16.13
2023-02-02T06:04:16.698Z,16.20
2023-02-02T06:06:44.116Z,16.10
2023-02-02T06:09:11.372Z,16.50
2023-02-02T06:11:39.512Z,15.07
2023-02-02T06:14:07.641Z,22.13
2023-02-02T06:16:34.897Z,18.73
2023-02-02T06:19:01.960Z,14.23
2023-02-02T06:21:31.189Z,15.90
2023-02-02T06:23:58.989Z,11.37
2023-02-02T06:26:27.121Z,13.63
2023-02-02T06:28:54.690Z,9.90
2023-02-02T06:31:22.537Z,10.33
2023-02-02T06:33:54.468Z,11.60
2023-02-02T06:36:21.883Z,7.97
2023-02-02T06:38:50.600Z,9.43
2023-02-02T06:41:18.418Z,9.17
2023-02-02T06:43:45.436Z,9.37
2023-02-02T06:46:12.605Z,6.87
2023-02-02T06:48:39.724Z,6.00
2023-02-02T06:51:06.904Z,12.37
2023-02-02T06:53:35.100Z,10.40
2023-02-02T06:56:05.194Z,17.20
2023-02-02T06:58:33.662Z,10.13
2023-02-02T07:01:11.560Z,13.67
2023-02-02T07:03:39.596Z,9.90
2023-02-02T07:06:13.589Z,9.40
2023-02-02T07:08:40.690Z,8.37
2023-02-02T07:11:14.414Z,7.27
2023-02-02T07:13:44.681Z,7.13
2023-02-02T07:16:13.157Z,6.70
2023-02-02T07:18:40.783Z,7.27
2023-02-02T07:21:07.489Z,9.00
2023-02-02T07:23:34.678Z,7.67
2023-02-02T07:26:07.021Z,7.90
2023-02-02T07:28:34.967Z,12.40
2023-02-02T07:31:12.184Z,14.10
2023-02-02T07:33:41.751Z,15.03
2023-02-02T07:36:08.756Z,16.87
2023-02-02T07:38:35.745Z,15.77
2023-02-02T07:41:03.429Z,15.10
2023-02-02T07:43:30.801Z,13.57
2023-02-02T07:46:08.154Z,12.87
2023-02-02T07:48:36.128Z,12.07
2023-02-02T07:51:08.137Z,14.50
2023-02-02T07:53:35.716Z,11.83
2023-02-02T07:56:06.728Z,14.83
2023-02-02T07:58:33.713Z,13.30
2023-02-02T08:01:04.891Z,14.17
2023-02-02T08:03:32.406Z,11.63
2023-02-02T08:05:59.658Z,14.27
2023-02-02T08:08:26.813Z,12.40
2023-02-02T08:10:54.357Z,12.43
2023-02-02T08:13:21.413Z,12.60
2023-02-02T08:15:48.355Z,11.83
2023-02-02T08:18:15.614Z,14.43
2023-02-02T08:20:43.005Z,13.43
2023-02-02T08:23:17.357Z,13.00
2023-02-02T08:25:45.846Z,14.37
2023-02-02T08:28:12.902Z,12.57
2023-02-02T08:30:39.771Z,12.37
2023-02-02T08:33:06.810Z,16.80
2023-02-02T08:35:33.818Z,16.13
2023-02-02T08:38:05.307Z,20.37
2023-02-02T08:40:32.244Z,14.37
2023-02-02T08:43:00.033Z,17.73
2023-02-02T08:46:01.394Z,10.43
2023-02-02T08:48:16.997Z,11.93
2023-02-02T08:50:43.715Z,11.57
2023-02-02T08:53:10.817Z,11.87
2023-02-02T08:55:37.541Z,8.90
2023-02-02T08:58:05.268Z,10.60
2023-02-02T09:00:32.085Z,11.33
2023-02-02T09:02:59.116Z,9.53
2023-02-02T09:05:26.426Z,10.40
2023-02-02T09:07:53.631Z,11.17
2023-02-02T09:10:20.467Z,9.33
2023-02-02T09:12:47.476Z,10.33
2023-02-02T09:15:14.276Z,7.27
2023-02-02T09:17:41.380Z,9.00
2023-02-02T09:20:08.567Z,4.43
2023-02-02T09:22:35.546Z,5.40
2023-02-02T09:25:02.283Z,5.07
2023-02-02T09:27:29.373Z,5.23
2023-02-02T09:29:56.108Z,5.10
2023-02-02T09:32:23.110Z,5.03
2023-02-02T09:34:49.819Z,6.77
2023-02-02T09:37:16.828Z,4.67
2023-02-02T09:39:43.662Z,10.13
2023-02-02T09:42:32.502Z,4.27
2023-02-02T09:45:07.902Z,2.90
2023-02-02T09:47:55.851Z,4.47
2023-02-02T09:50:44.038Z,5.83
2023-02-02T09:53:27.596Z,5.10
2023-02-02T09:55:58.487Z,3.27
2023-02-02T09:58:36.637Z,4.73
2023-02-02T10:01:09.510Z,4.50
2023-02-02T10:03:54.554Z,2.70
2023-02-02T10:06:26.367Z,2.97
2023-02-02T10:08:57.579Z,3.13
2023-02-02T10:11:31.060Z,3.60
2023-02-02T10:14:05.052Z,4.00
2023-02-02T10:16:34.088Z,2.87
2023-02-02T10:19:13.738Z,1.43
2023-02-02T10:21:54.250Z,1.93
2023-02-02T10:24:24.419Z,1.67
2023-02-02T10:26:56.775Z,4.27
2023-02-02T10:29:28.097Z,2.47
2023-02-02T10:32:23.399Z,3.27
2023-02-02T10:35:14.684Z,5.13
2023-02-02T10:38:22.797Z,5.27
2023-02-02T10:41:22.293Z,4.57
2023-02-02T10:44:02.403Z,2.67
2023-02-02T10:46:43.072Z,2.10
2023-02-02T10:49:12.917Z,3.90
2023-02-02T10:51:41.220Z,1.13
2023-02-02T10:54:24.494Z,3.73
2023-02-02T10:56:54.032Z,8.20
2023-02-02T10:59:41.753Z,5.60
2023-02-02T11:02:20.726Z,3.90
2023-02-02T11:05:06.617Z,2.93
2023-02-02T11:07:33.630Z,2.37
2023-02-02T11:10:00.374Z,2.40
2023-02-02T11:12:52.963Z,2.80
2023-02-02T11:15:25.746Z,3.73
2023-02-02T11:17:52.822Z,4.03
2023-02-02T11:20:33.712Z,5.50
2023-02-02T11:23:03.525Z,4.53
2023-02-02T11:25:36.766Z,2.97
2023-02-02T11:28:21.144Z,3.23
2023-02-02T11:30:52.409Z,2.77
2023-02-02T11:33:34.776Z,1.47
2023-02-02T11:36:18.033Z,4.43
2023-02-02T11:38:45.101Z,3.10
2023-02-02T11:41:13.826Z,2.00
2023-02-02T11:43:47.681Z,1.57
2023-02-02T11:46:24.752Z,4.40
2023-02-02T11:49:02.332Z,2.80
2023-02-02T11:51:30.837Z,3.23
2023-02-02T11:54:16.998Z,3.40
2023-02-02T11:56:49.698Z,1.97
2023-02-02T11:59:29.091Z,4.03
2023-02-02T12:02:14.741Z,3.90
2023-02-02T12:04:41.787Z,5.10
2023-02-02T12:07:35.821Z,8.33
2023-02-02T12:10:19.569Z,4.67
2023-02-02T12:13:08.336Z,3.13
2023-02-02T12:15:44.059Z,7.20
2023-02-02T12:18:50.792Z,3.30
2023-02-02T12:21:26.874Z,6.07
2023-02-02T12:24:00.136Z,18.87
2023-02-02T12:26:37.110Z,20.60
2023-02-02T12:29:18.793Z,22.67
2023-02-02T12:32:01.242Z,20.40
2023-02-02T12:34:52.639Z,16.73
2023-02-02T12:37:39.389Z,12.97
2023-02-02T12:40:34.619Z,18.03
2023-02-02T12:43:19.252Z,24.80
2023-02-02T12:45:58.818Z,15.90
2023-02-02T12:48:38.838Z,12.87
2023-02-02T12:51:47.866Z,10.27
2023-02-02T12:54:46.763Z,13.77
2023-02-02T12:57:31.652Z,19.30
2023-02-02T13:00:17.823Z,16.13
2023-02-02T13:03:01.815Z,18.17
2023-02-02T13:05:55.272Z,16.70
2023-02-02T13:08:35.780Z,17.73
2023-02-02T13:11:31.021Z,16.13
2023-02-02T13:14:16.220Z,12.37
2023-02-02T13:16:48.510Z,13.53
2023-02-02T13:19:40.470Z,12.07
2023-02-02T13:22:14.614Z,11.57
2023-02-02T13:24:44.381Z,12.73
2023-02-02T13:27:17.894Z,12.77
2023-02-02T13:29:51.619Z,10.23
2023-02-02T13:32:33.354Z,9.37
2023-02-02T13:35:05.290Z,10.20
2023-02-02T13:37:40.951Z,11.60
2023-02-02T13:40:39.800Z,10.83
2023-02-02T13:43:22.578Z,13.87
2023-02-02T13:45:55.968Z,10.67
2023-02-02T13:48:25.704Z,8.87
2023-02-02T13:51:13.648Z,12.13
2023-02-02T13:54:16.909Z,10.03
2023-02-02T13:57:05.958Z,8.43
2023-02-02T13:59:35.691Z,8.10
2023-02-02T14:02:03.555Z,6.67
2023-02-02T14:04:31.564Z,13.83
2023-02-02T14:09:37.045Z,9.50
2023-02-02T14:12:09.770Z,12.07
2023-02-02T14:14:39.847Z,10.73
2023-02-02T14:17:17.329Z,9.63
2023-02-02T14:19:49.258Z,12.30
2023-02-02T14:22:37.971Z,5.20
2023-02-02T14:25:29.741Z,2.97
2023-02-02T14:28:02.308Z,2.80
2023-02-02T14:30:32.773Z,4.00
2023-02-02T14:33:21.463Z,4.73
2023-02-02T14:35:48.677Z,6.13
2023-02-02T14:38:51.017Z,13.70
2023-02-02T14:42:00.912Z,10.40
2023-02-02T14:44:28.699Z,8.97
2023-02-02T14:46:56.155Z,7.47
2023-02-02T14:49:27.412Z,10.80
2023-02-02T14:51:59.532Z,7.33
2023-02-02T14:54:37.397Z,9.80
2023-02-02T14:57:27.297Z,6.37
2023-02-02T14:59:55.932Z,6.97
2023-02-02T15:02:32.599Z,8.53
2023-02-02T15:05:28.180Z,8.97
2023-02-02T15:08:20.389Z,6.63
2023-02-02T15:10:56.735Z,8.73
2023-02-02T15:13:28.920Z,6.40
2023-02-02T15:16:07.555Z,1.93
2023-02-02T15:18:44.317Z,1.03
2023-02-02T15:21:17.005Z,1.53
2023-02-02T15:23:46.163Z,0.83
2023-02-02T15:26:27.964Z,1.93
2023-02-02T15:29:01.420Z,2.97
2023-02-02T15:31:39.553Z,6.57
2023-02-02T15:34:17.367Z,3.20
2023-02-02T15:36:48.133Z,4.23
2023-02-02T15:39:31.989Z,2.50
2023-02-02T15:42:20.660Z,2.60
2023-02-02T15:44:47.757Z,2.20
2023-02-02T15:47:22.095Z,1.40
2023-02-02T15:49:49.234Z,1.70
2023-02-02T15:52:21.079Z,3.77
2023-02-02T15:54:59.549Z,2.00
2023-02-02T15:57:34.446Z,1.70
2023-02-02T16:00:26.373Z,2.87
2023-02-02T16:03:04.209Z,1.27
2023-02-02T16:05:31.426Z,4.30
2023-02-02T16:08:06.524Z,4.87
2023-02-02T16:10:35.291Z,4.47
2023-02-02T16:13:03.466Z,3.07
2023-02-02T16:15:34.228Z,3.40
2023-02-02T16:18:10.648Z,2.47
2023-02-02T16:20:38.879Z,3.87
2023-02-02T16:23:14.164Z,2.90
2023-02-02T16:25:53.190Z,3.20
2023-02-02T16:28:24.892Z,5.97
2023-02-02T16:30:53.004Z,2.40
2023-02-02T16:33:41.498Z,2.67
2023-02-02T16:36:25.006Z,3.40
2023-02-02T16:38:54.540Z,2.97
2023-02-02T16:41:32.982Z,2.80
2023-02-02T16:44:36.976Z,4.03
2023-02-02T16:47:06.951Z,5.23
2023-02-02T16:49:35.199Z,6.73
2023-02-02T16:52:15.786Z,5.30
2023-02-02T16:54:51.555Z,3.90
2023-02-02T16:57:23.003Z,5.53
2023-02-02T16:59:54.061Z,5.80
2023-02-02T17:02:27.038Z,4.50
2023-02-02T17:05:21.621Z,4.87
2023-02-02T17:07:55.620Z,2.97
2023-02-02T17:10:25.335Z,3.20
2023-02-02T17:12:52.939Z,4.93
2023-02-02T17:15:19.628Z,5.00
2023-02-02T17:17:48.727Z,6.60
2023-02-02T17:20:17.830Z,5.63
2023-02-02T17:22:56.406Z,4.80
2023-02-02T17:25:35.073Z,4.17
2023-02-02T17:28:03.691Z,3.77
2023-02-02T17:30:30.748Z,7.67
2023-02-02T17:32:57.872Z,6.27
2023-02-02T17:35:27.108Z,4.90
2023-02-02T17:37:55.001Z,6.80
2023-02-02T17:40:24.026Z,10.03
2023-02-02T17:42:53.213Z,10.83
2023-02-02T17:45:22.637Z,10.93
2023-02-02T17:47:51.168Z,13.23
2023-02-02T17:50:18.541Z,11.87
2023-02-02T17:52:46.202Z,11.43
2023-02-02T17:55:18.799Z,13.37
2023-02-02T17:57:47.314Z,14.83
2023-02-02T18:00:15.460Z,11.17
2023-02-02T18:02:42.878Z,16.13
2023-02-02T18:05:11.385Z,14.10
2023-02-02T18:07:39.059Z,13.83
2023-02-02T18:10:07.288Z,16.73
2023-02-02T18:12:36.999Z,14.60
2023-02-02T18:15:06.348Z,13.10
2023-02-02T18:17:34.172Z,15.90
2023-02-02T18:20:01.018Z,14.10
2023-02-02T18:22:28.108Z,13.50
2023-02-02T18:24:55.065Z,12.57
2023-02-02T18:27:22.117Z,14.03
2023-02-02T18:29:48.882Z,17.10
2023-02-02T18:32:17.679Z,21.73
2023-02-02T18:34:45.663Z,15.60
2023-02-02T18:37:12.729Z,24.33
2023-02-02T18:39:39.545Z,26.30
2023-02-02T18:42:06.609Z,24.43
2023-02-02T18:44:35.256Z,23.07
2023-02-02T18:47:02.481Z,21.33
2023-02-02T18:49:29.199Z,18.27
2023-02-02T18:51:56.272Z,16.53
2023-02-02T18:54:23.469Z,9.67
2023-02-02T18:56:50.610Z,14.97
2023-02-02T18:59:17.475Z,14.27
2023-02-02T19:01:44.534Z,15.37
2023-02-02T19:04:11.638Z,16.93
2023-02-02T19:06:57.245Z,13.27
2023-02-02T19:09:24.779Z,13.07
2023-02-02T19:11:55.048Z,13.97
2023-02-02T19:14:27.173Z,16.77
2023-02-02T19:16:59.628Z,12.40
2023-02-02T19:19:30.208Z,13.40
2023-02-02T19:21:58.448Z,13.93
2023-02-02T19:24:27.113Z,10.87
2023-02-02T19:26:54.764Z,9.57
2023-02-02T19:29:24.965Z,16.87
2023-02-02T19:32:09.347Z,17.17
2023-02-02T19:34:36.108Z,18.97
2023-02-02T19:37:15.586Z,15.63
2023-02-02T19:39:44.132Z,17.20
2023-02-02T19:42:11.586Z,18.43
2023-02-02T19:44:40.579Z,17.07
2023-02-02T19:47:21.521Z,21.27
2023-02-02T19:49:48.283Z,20.53
2023-02-02T19:52:21.755Z,25.30
2023-02-02T19:54:49.616Z,45.60
2023-02-02T19:57:27.206Z,50.63
2023-02-02T19:59:54.779Z,50.83
2023-02-02T20:02:29.278Z,35.77
2023-02-02T20:05:14.959Z,31.87
2023-02-02T20:07:42.094Z,37.03
2023-02-02T20:10:27.792Z,34.07
2023-02-02T20:12:55.125Z,28.57
2023-02-02T20:15:32.118Z,17.33
2023-02-02T20:18:01.917Z,18.70
2023-02-02T20:20:38.922Z,16.10
2023-02-02T20:23:20.243Z,14.50
2023-02-02T20:25:46.933Z,21.90
2023-02-02T20:28:41.784Z,15.20
2023-02-02T20:31:11.200Z,15.43
2023-02-02T20:33:42.517Z,15.00
2023-02-02T20:36:37.550Z,15.60
2023-02-02T20:39:39.635Z,21.20
2023-02-02T20:42:06.394Z,16.90
2023-02-02T20:44:34.847Z,16.33
2023-02-02T20:47:02.620Z,20.57
2023-02-02T20:49:31.791Z,25.80
2023-02-02T20:52:02.144Z,26.50
2023-02-02T20:54:30.592Z,28.80
2023-02-02T20:56:57.963Z,37.83
2023-02-02T20:59:25.085Z,34.67
2023-02-02T21:01:52.923Z,31.87
2023-02-02T21:04:21.616Z,34.07
2023-02-02T21:06:49.212Z,24.77
2023-02-02T21:09:17.452Z,22.47
2023-02-02T21:11:44.485Z,24.10
2023-02-02T21:14:11.515Z,29.00
2023-02-02T21:16:38.554Z,27.60
2023-02-02T21:19:05.706Z,24.70
2023-02-02T21:21:32.459Z,33.77
2023-02-02T21:24:00.793Z,36.17
2023-02-02T21:26:30.262Z,18.97
2023-02-02T21:28:58.443Z,15.07
2023-02-02T21:31:26.291Z,18.27
2023-02-02T21:33:53.871Z,20.60
2023-02-02T21:36:34.496Z,20.90
2023-02-02T21:39:19.233Z,20.60
2023-02-02T21:41:46.142Z,19.63
2023-02-02T21:44:15.884Z,18.67
2023-02-02T21:46:43.486Z,22.00
2023-02-02T21:49:20.360Z,22.50
2023-02-02T21:51:47.234Z,18.07
2023-02-02T21:54:20.065Z,14.57
2023-02-02T21:56:47.297Z,13.77
2023-02-02T21:59:20.622Z,15.37
2023-02-02T22:01:49.631Z,15.67
2023-02-02T22:04:31.198Z,16.83
2023-02-02T22:07:12.525Z,17.23
2023-02-02T22:09:42.629Z,15.37
2023-02-02T22:12:24.063Z,20.00
2023-02-02T22:15:00.592Z,15.73
2023-02-02T22:17:41.074Z,13.43
2023-02-02T22:20:29.967Z,13.60
2023-02-02T22:22:56.799Z,11.60
2023-02-02T22:25:35.995Z,14.90
2023-02-02T22:28:11.134Z,11.00
2023-02-02T22:30:40.495Z,14.90
2023-02-02T22:33:09.771Z,11.80
2023-02-02T22:35:37.388Z,14.53
2023-02-02T22:38:05.318Z,16.67
2023-02-02T22:40:32.421Z,13.53
2023-02-02T22:43:01.208Z,15.47
2023-02-02T22:45:28.292Z,19.33
2023-02-02T22:47:55.227Z,16.57
2023-02-02T22:50:25.658Z,20.07
2023-02-02T22:52:52.821Z,20.43
2023-02-02T22:55:20.201Z,24.00
2023-02-02T22:57:47.141Z,23.17
2023-02-02T23:00:17.939Z,25.77
2023-02-02T23:02:44.786Z,25.67
2023-02-02T23:05:13.853Z,25.83
2023-02-02T23:07:43.992Z,25.03
2023-02-02T23:10:16.733Z,21.73
2023-02-02T23:12:44.104Z,21.10
2023-02-02T23:15:11.568Z,19.13
2023-02-02T23:17:38.705Z,16.87
2023-02-02T23:20:09.755Z,20.17
2023-02-02T23:22:36.518Z,14.00
2023-02-02T23:25:04.209Z,15.93
2023-02-02T23:27:31.315Z,18.27
2023-02-02T23:29:58.338Z,16.93
2023-02-02T23:32:25.056Z,15.63
2023-02-02T23:34:52.109Z,18.33
2023-02-02T23:37:18.850Z,16.43
2023-02-02T23:39:45.896Z,14.13
2023-02-02T23:42:12.787Z,15.23
2023-02-02T23:44:39.883Z,15.30
2023-02-02T23:47:07.044Z,16.60
2023-02-02T23:49:34.466Z,22.07
2023-02-02T23:52:01.299Z,24.13
2023-02-02T23:54:29.567Z,35.77
2023-02-02T23:56:57.389Z,23.00
2023-02-02T23:59:24.458Z,20.30
